aviador You're here:

YPPH Decoded Metar

PERTH in AUSTRALIA
Report Time2018-07-22 16:30:00
UTC Time2018-07-22 16:36:34
Flight Rules vfr VFR
Wind250° at 16 Gusting to 28 kt
W.Decomp.*RWY 24: 15.7 kt HW 3.3 kt RCW
RWY 21: 11.9 kt HW 10.7 kt RCW
W.Rank250° ranks 16
Current wind is above 250° avg. (10.4)
Visibility9999 m
Phenomena:Vicinity showers
Clouds:Few 030 Hf
Scattered 080 Hf
Expected CloudBase > 2,400 ft AGL from Temp-Dew spread
CeilingNone
Temp15°C (ISA 0)
Dew Point09°C (68% RH)
AAT9.1°C
QNH1008 hPa
Density Alt377 ft
Elevation43 ft
Report Wrong Elevation
Raw Report
YPPH 221630Z 25016G28KT 9999 VCSH FEW030 SCT080 15/09 Q1008 NOSIG=

Extra information for YPPH:More info

Metar Taf Metar & Taf Last 4 Metars F.Rules Stats Wind Profile Meteogram Temp Stats Airport Information Weather charts Add Link Nearby VenuesMetar ALERT Operation Metar Decoded Social comments